Time;durP1;ratioP1;P1;durP2;ratioP2;P2;SDS_P1;SDS_P2;PMS_P1;PMS_P2;Temp;Humidity;BMP_temperature;BMP_pressure;BME280_temperature;BME280_humidity;BME280_pressure;Samples;Min_cycle;Max_cycle;Signal;HPM_P1;HPM_P2
2022/12/07 00:00:49;;;;;;;17.30;8.07;;;3.30;99.90;;;;;;5040237;28;20311;-75
2022/12/07 00:03:14;;;;;;;16.50;8.80;;;3.40;99.90;;;;;;5044965;28;20210;-75
2022/12/07 00:05:40;;;;;;;18.63;8.67;;;3.30;99.90;;;;;;5042531;28;20172;-75
2022/12/07 00:08:06;;;;;;;16.80;8.73;;;3.30;99.90;;;;;;5043655;28;20207;-76
2022/12/07 00:10:33;;;;;;;13.07;7.70;;;3.30;99.90;;;;;;5047506;28;20238;-75
2022/12/07 00:12:59;;;;;;;17.40;8.80;;;3.30;99.90;;;;;;5045984;28;20231;-75
2022/12/07 00:15:25;;;;;;;13.93;7.93;;;3.10;99.90;;;;;;5043902;28;20245;-75
2022/12/07 00:17:51;;;;;;;15.73;8.43;;;3.20;99.90;;;;;;5046608;28;20239;-75
2022/12/07 00:20:16;;;;;;;13.97;7.87;;;3.20;99.90;;;;;;5042172;28;20624;-76
2022/12/07 00:22:42;;;;;;;12.13;7.50;;;3.10;99.90;;;;;;5044601;28;20898;-75
2022/12/07 00:25:07;;;;;;;11.93;8.03;;;3.20;99.90;;;;;;5047063;28;20224;-75
2022/12/07 00:27:33;;;;;;;14.83;8.53;;;3.10;99.90;;;;;;5041033;28;20255;-75
2022/12/07 00:29:58;;;;;;;13.63;8.37;;;3.20;99.90;;;;;;5044600;28;20631;-75
2022/12/07 00:32:24;;;;;;;15.67;8.83;;;3.20;99.90;;;;;;5043425;28;20211;-75
2022/12/07 00:34:50;;;;;;;12.20;7.50;;;3.10;99.90;;;;;;5042108;28;20206;-75
2022/12/07 00:37:15;;;;;;;11.87;7.70;;;3.10;99.90;;;;;;5038900;28;20709;-74
2022/12/07 00:39:41;;;;;;;12.60;7.57;;;3.00;99.90;;;;;;5041803;28;20203;-75
2022/12/07 00:42:06;;;;;;;13.93;7.93;;;3.00;99.90;;;;;;5042177;28;20557;-75
2022/12/07 00:44:32;;;;;;;12.47;8.33;;;2.90;99.90;;;;;;5049221;28;20206;-76
2022/12/07 00:46:58;;;;;;;12.03;7.60;;;2.90;99.90;;;;;;5047307;28;20225;-74
2022/12/07 00:49:23;;;;;;;11.90;7.30;;;2.90;99.90;;;;;;5046094;28;20212;-75
2022/12/07 00:51:49;;;;;;;13.63;7.37;;;2.80;99.90;;;;;;5047039;28;20216;-75
2022/12/07 00:54:15;;;;;;;11.17;7.57;;;2.80;99.90;;;;;;5045333;28;20184;-76
2022/12/07 00:56:40;;;;;;;12.80;7.53;;;2.70;99.90;;;;;;5048474;28;20205;-74
2022/12/07 00:59:06;;;;;;;11.57;6.50;;;2.70;99.90;;;;;;5041082;28;20215;-75
2022/12/07 01:01:34;;;;;;;14.07;7.67;;;2.70;99.90;;;;;;5044571;28;20587;-75
2022/12/07 01:04:03;;;;;;;12.80;7.23;;;2.70;99.90;;;;;;5049048;28;20215;-75
2022/12/07 01:06:30;;;;;;;11.03;6.90;;;2.80;99.90;;;;;;5047279;28;20215;-74
2022/12/07 01:08:56;;;;;;;9.10;6.33;;;2.70;99.90;;;;;;5043735;28;20658;-75
2022/12/07 01:11:24;;;;;;;9.97;6.50;;;2.70;99.90;;;;;;5050283;28;20199;-75
2022/12/07 01:13:52;;;;;;;11.07;6.47;;;2.80;99.90;;;;;;5042467;28;20248;-75
2022/12/07 01:16:19;;;;;;;14.63;7.43;;;2.80;99.90;;;;;;5047377;28;20204;-75
2022/12/07 01:18:47;;;;;;;9.57;6.03;;;2.90;99.90;;;;;;5048542;28;20218;-76
2022/12/07 01:21:20;;;;;;;12.33;6.40;;;2.90;99.90;;;;;;5043987;28;20573;-75
2022/12/07 01:23:46;;;;;;;10.97;6.33;;;2.90;99.90;;;;;;5047165;28;20206;-75
2022/12/07 01:26:14;;;;;;;9.20;5.63;;;2.90;99.90;;;;;;5042881;28;20226;-75
2022/12/07 01:28:40;;;;;;;8.90;6.03;;;2.80;99.90;;;;;;5045231;28;20216;-74
2022/12/07 01:31:14;;;;;;;9.73;5.80;;;2.80;99.90;;;;;;5047522;28;20204;-75
2022/12/07 01:33:41;;;;;;;8.83;5.80;;;2.80;99.90;;;;;;5060403;28;20269;-75
2022/12/07 01:36:16;;;;;;;9.90;5.70;;;2.80;99.90;;;;;;5044633;28;20180;-75
2022/12/07 01:38:42;;;;;;;7.97;5.33;;;2.80;99.90;;;;;;5046118;28;20231;-75
2022/12/07 01:41:08;;;;;;;8.87;6.17;;;2.90;99.90;;;;;;5046331;28;20278;-75
2022/12/07 01:43:34;;;;;;;10.10;5.70;;;2.90;99.90;;;;;;5046691;28;20720;-76
2022/12/07 01:46:01;;;;;;;8.13;5.10;;;3.00;99.90;;;;;;5045577;28;20223;-75
2022/12/07 01:48:41;;;;;;;6.87;5.20;;;3.00;99.90;;;;;;5042797;28;20224;-75
2022/12/07 01:51:13;;;;;;;7.00;4.93;;;2.90;99.90;;;;;;5048863;28;20556;-75
2022/12/07 01:53:43;;;;;;;8.73;5.17;;;3.00;99.90;;;;;;5044952;28;20239;-76
2022/12/07 01:56:15;;;;;;;7.63;5.17;;;3.00;99.90;;;;;;5044647;28;20212;-76
2022/12/07 01:58:41;;;;;;;7.37;5.43;;;3.00;99.90;;;;;;5045324;28;20285;-76
2022/12/07 02:01:07;;;;;;;7.33;5.23;;;3.00;99.90;;;;;;5043200;28;20214;-75
2022/12/07 02:03:38;;;;;;;8.77;5.40;;;3.00;99.90;;;;;;5047634;28;20211;-75
2022/12/07 02:06:06;;;;;;;8.70;5.50;;;3.00;99.90;;;;;;5044884;28;20176;-75
2022/12/07 02:08:32;;;;;;;8.47;4.97;;;3.00;99.90;;;;;;5042062;28;20207;-75
2022/12/07 02:10:57;;;;;;;9.80;5.43;;;2.90;99.90;;;;;;5045547;28;20278;-75
2022/12/07 02:13:26;;;;;;;6.67;4.50;;;2.90;99.90;;;;;;5049867;28;20223;-75
2022/12/07 02:16:16;;;;;;;8.80;5.27;;;2.90;99.90;;;;;;5039423;28;20263;-75
2022/12/07 02:19:10;;;;;;;8.33;4.93;;;2.90;99.90;;;;;;5039135;28;20753;-75
2022/12/07 02:21:46;;;;;;;7.87;4.87;;;2.90;99.90;;;;;;5042800;28;20701;-76
2022/12/07 02:24:30;;;;;;;6.67;5.10;;;2.90;99.90;;;;;;5040167;28;20188;-76
2022/12/07 02:27:32;;;;;;;7.70;5.00;;;2.90;99.90;;;;;;5044901;28;20207;-75
2022/12/07 02:29:58;;;;;;;9.67;5.70;;;2.90;99.90;;;;;;5040721;28;20222;-75
2022/12/07 02:32:36;;;;;;;6.93;4.57;;;2.90;99.90;;;;;;5047671;28;20211;-76
2022/12/07 02:35:19;;;;;;;6.70;4.90;;;2.90;99.90;;;;;;5042091;28;20266;-74
2022/12/07 02:38:06;;;;;;;9.50;5.80;;;2.80;99.90;;;;;;5045992;28;20970;-74
2022/12/07 02:41:00;;;;;;;8.80;5.87;;;2.80;99.90;;;;;;5040767;28;20227;-75
2022/12/07 02:43:30;;;;;;;8.53;5.83;;;2.80;99.90;;;;;;5039881;28;20203;-75
2022/12/07 02:46:25;;;;;;;11.17;5.83;;;2.70;99.90;;;;;;5044399;28;20215;-76
2022/12/07 02:48:53;;;;;;;8.97;5.57;;;2.80;99.90;;;;;;5041883;28;20291;-75
2022/12/07 02:51:19;;;;;;;10.20;6.07;;;2.70;99.90;;;;;;5048549;28;20186;-76
2022/12/07 02:53:45;;;;;;;9.93;6.43;;;2.70;99.90;;;;;;5045039;28;20180;-75
2022/12/07 02:56:31;;;;;;;9.63;6.43;;;2.80;99.90;;;;;;5042217;28;20222;-75
2022/12/07 02:58:57;;;;;;;11.87;6.73;;;2.70;99.90;;;;;;5044923;28;20219;-75
2022/12/07 03:01:24;;;;;;;11.30;6.47;;;2.70;99.90;;;;;;5044489;28;20217;-75
2022/12/07 03:04:14;;;;;;;10.27;5.73;;;2.70;99.90;;;;;;5042266;28;20241;-75
2022/12/07 03:06:51;;;;;;;12.80;6.87;;;2.80;99.90;;;;;;5039444;28;21109;-76
2022/12/07 03:09:39;;;;;;;11.00;6.63;;;2.80;99.90;;;;;;5041684;28;20184;-75
2022/12/07 03:12:21;;;;;;;10.40;6.27;;;2.90;99.90;;;;;;5038710;28;20205;-75
2022/12/07 03:14:57;;;;;;;13.70;6.27;;;2.80;99.90;;;;;;5040331;28;20223;-75
2022/12/07 03:17:28;;;;;;;11.43;6.80;;;2.80;99.90;;;;;;5037820;28;20358;-75
2022/12/07 03:19:57;;;;;;;10.77;6.70;;;2.80;99.90;;;;;;5039290;28;20205;-75
2022/12/07 03:22:27;;;;;;;11.13;6.50;;;2.80;99.90;;;;;;5041958;28;20214;-76
2022/12/07 03:24:57;;;;;;;12.73;7.33;;;2.80;99.90;;;;;;5038972;28;20219;-76
2022/12/07 03:27:36;;;;;;;14.73;8.57;;;2.80;99.90;;;;;;5040439;28;20192;-75
2022/12/07 03:30:07;;;;;;;15.50;7.57;;;2.80;99.90;;;;;;5037340;28;20194;-75
2022/12/07 03:32:48;;;;;;;13.83;8.33;;;2.90;99.90;;;;;;5041782;28;20221;-75
2022/12/07 03:35:22;;;;;;;13.73;7.97;;;2.80;99.90;;;;;;5044037;28;20768;-77
2022/12/07 03:37:59;;;;;;;11.33;7.43;;;2.90;99.90;;;;;;5043907;28;20207;-75
2022/12/07 03:40:34;;;;;;;13.30;8.43;;;2.80;99.90;;;;;;5040270;28;20279;-75
2022/12/07 03:43:01;;;;;;;17.53;9.27;;;2.90;99.90;;;;;;5041551;28;20775;-75
2022/12/07 03:46:10;;;;;;;12.73;7.70;;;2.90;99.90;;;;;;5036713;28;20175;-75
2022/12/07 03:48:41;;;;;;;13.73;7.97;;;2.80;99.90;;;;;;5039964;28;20215;-75
2022/12/07 03:51:26;;;;;;;15.07;8.20;;;2.80;99.90;;;;;;5036078;28;20670;-75
2022/12/07 03:53:58;;;;;;;15.97;8.63;;;2.90;99.90;;;;;;5039364;28;20205;-75
2022/12/07 03:56:26;;;;;;;13.10;8.33;;;2.80;99.90;;;;;;5041067;28;20230;-75
2022/12/07 03:58:53;;;;;;;15.53;8.97;;;2.80;99.90;;;;;;5036317;28;20207;-75
2022/12/07 04:01:19;;;;;;;16.70;8.47;;;2.80;99.90;;;;;;5042522;28;20201;-75
2022/12/07 04:03:44;;;;;;;13.03;8.50;;;2.80;99.90;;;;;;5038636;28;20299;-75
2022/12/07 04:06:10;;;;;;;17.57;10.00;;;2.80;99.90;;;;;;5038036;28;20226;-75
2022/12/07 04:08:36;;;;;;;14.07;8.73;;;2.80;99.90;;;;;;5042890;28;20700;-75
2022/12/07 04:11:02;;;;;;;16.60;9.23;;;2.90;99.90;;;;;;5036379;28;20305;-74
2022/12/07 04:13:27;;;;;;;15.97;9.73;;;2.90;99.90;;;;;;5040100;28;20216;-75
2022/12/07 04:15:53;;;;;;;18.50;9.60;;;2.90;99.90;;;;;;5038157;28;20588;-75
2022/12/07 04:18:18;;;;;;;16.47;9.50;;;2.90;99.90;;;;;;5040889;28;20262;-76
2022/12/07 04:20:46;;;;;;;19.40;10.37;;;2.90;99.90;;;;;;5046366;28;20180;-73
2022/12/07 04:23:11;;;;;;;17.50;9.97;;;2.90;99.90;;;;;;5043197;28;20205;-72
2022/12/07 04:25:37;;;;;;;22.33;11.53;;;2.90;99.90;;;;;;5041447;28;20209;-74
2022/12/07 04:28:03;;;;;;;19.07;10.27;;;2.80;99.90;;;;;;5039891;28;20565;-72
2022/12/07 04:30:28;;;;;;;21.53;11.53;;;2.90;99.90;;;;;;5043704;28;20227;-73
2022/12/07 04:32:54;;;;;;;20.10;11.53;;;2.90;99.90;;;;;;5041512;28;20289;-72
2022/12/07 04:35:19;;;;;;;18.97;11.33;;;2.80;99.90;;;;;;5043194;28;20205;-74
2022/12/07 04:37:45;;;;;;;20.00;11.17;;;2.90;99.90;;;;;;5044193;28;20207;-72
2022/12/07 04:40:12;;;;;;;20.80;11.13;;;2.80;99.90;;;;;;5042786;28;20546;-72
2022/12/07 04:42:38;;;;;;;22.30;12.17;;;2.80;99.90;;;;;;5043786;28;20251;-72
2022/12/07 04:45:04;;;;;;;21.47;12.57;;;2.80;99.90;;;;;;5044502;28;20249;-72
2022/12/07 04:47:30;;;;;;;23.73;13.40;;;2.80;99.90;;;;;;5043847;28;20204;-71
2022/12/07 04:49:55;;;;;;;20.87;11.97;;;2.80;99.90;;;;;;5038831;28;20223;-72
2022/12/07 04:52:21;;;;;;;20.07;11.83;;;2.80;99.90;;;;;;5040457;28;20298;-73
2022/12/07 04:54:46;;;;;;;22.90;13.17;;;2.80;99.90;;;;;;5040304;28;20242;-72
2022/12/07 04:57:12;;;;;;;22.87;13.03;;;2.80;99.90;;;;;;5042702;28;20645;-73
2022/12/07 04:59:38;;;;;;;23.60;12.63;;;2.80;99.90;;;;;;5041392;28;20253;-72
2022/12/07 05:02:03;;;;;;;24.80;14.23;;;2.90;99.90;;;;;;5039398;28;20205;-73
2022/12/07 05:04:29;;;;;;;30.67;14.50;;;2.90;99.90;;;;;;5043406;28;20211;-72
2022/12/07 05:06:54;;;;;;;29.90;15.57;;;2.90;99.90;;;;;;5044412;28;20244;-72
2022/12/07 05:09:20;;;;;;;26.67;15.10;;;2.90;99.90;;;;;;5043738;28;20258;-72
2022/12/07 05:11:46;;;;;;;31.80;16.47;;;3.00;99.90;;;;;;5041441;28;20207;-72
2022/12/07 05:14:18;;;;;;;28.87;15.37;;;3.00;99.90;;;;;;5042345;28;20259;-72
2022/12/07 05:16:44;;;;;;;30.40;16.27;;;3.00;99.90;;;;;;5042686;28;20232;-72
2022/12/07 05:19:10;;;;;;;33.67;17.97;;;3.10;99.90;;;;;;5062472;28;20271;-72
2022/12/07 05:21:36;;;;;;;31.93;17.67;;;3.10;99.90;;;;;;5045229;28;20642;-72
2022/12/07 05:24:03;;;;;;;29.80;15.57;;;3.10;99.90;;;;;;5041947;28;20168;-72
2022/12/07 05:26:29;;;;;;;33.33;17.27;;;3.10;99.90;;;;;;5050112;28;20204;-72
2022/12/07 05:28:56;;;;;;;29.97;16.10;;;3.10;99.90;;;;;;5045146;28;20704;-74
2022/12/07 05:31:23;;;;;;;32.93;17.73;;;3.10;99.90;;;;;;5046046;28;20249;-73
2022/12/07 05:33:49;;;;;;;35.50;17.40;;;3.20;99.90;;;;;;5047433;28;20250;-71
2022/12/07 05:36:14;;;;;;;30.37;17.23;;;3.10;99.90;;;;;;5046124;28;20619;-73
2022/12/07 05:38:41;;;;;;;34.63;17.63;;;3.20;99.90;;;;;;5044613;28;20171;-73
2022/12/07 05:42:11;;;;;;;32.13;16.77;;;3.20;99.90;;;;;;5046887;28;20637;-73
2022/12/07 05:43:53;;;;;;;32.03;15.77;;;3.20;99.90;;;;;;5045462;28;20749;-71
2022/12/07 05:46:18;;;;;;;34.07;17.63;;;3.20;99.90;;;;;;5046870;28;20274;-72
2022/12/07 05:48:44;;;;;;;32.27;17.10;;;3.20;99.90;;;;;;5048140;28;20213;-75
2022/12/07 05:51:10;;;;;;;35.63;18.43;;;3.20;99.90;;;;;;5042033;28;20178;-72
2022/12/07 05:53:35;;;;;;;36.07;18.50;;;3.20;99.90;;;;;;5047006;28;20309;-72
2022/12/07 05:56:01;;;;;;;32.80;16.73;;;3.30;99.90;;;;;;5044640;28;20199;-73
2022/12/07 06:01:10;;;;;;;32.47;16.50;;;3.30;99.90;;;;;;5048823;28;20276;-72
2022/12/07 06:03:36;;;;;;;33.60;16.60;;;3.30;99.90;;;;;;5043478;28;20697;-72
2022/12/07 06:06:02;;;;;;;37.03;18.17;;;3.30;99.90;;;;;;5044800;28;20177;-74
2022/12/07 06:08:27;;;;;;;37.00;18.00;;;3.30;99.90;;;;;;5048024;28;20362;-72
2022/12/07 06:12:33;;;;;;;33.23;17.20;;;3.40;99.90;;;;;;5041213;28;20208;-69
2022/12/07 06:13:38;;;;;;;35.17;17.57;;;3.40;99.90;;;;;;5048804;28;20213;-73
2022/12/07 06:16:04;;;;;;;34.97;17.20;;;3.40;99.90;;;;;;5042977;28;20600;-72
2022/12/07 06:18:30;;;;;;;35.03;18.03;;;3.40;99.90;;;;;;5044423;28;20356;-72
2022/12/07 06:20:55;;;;;;;36.57;17.77;;;3.40;99.90;;;;;;5045542;28;20182;-72
2022/12/07 06:23:21;;;;;;;33.80;17.73;;;3.40;99.90;;;;;;5047959;28;20976;-73
2022/12/07 06:25:46;;;;;;;39.00;18.87;;;3.40;99.90;;;;;;5047118;28;20202;-76
2022/12/07 06:28:12;;;;;;;33.17;17.27;;;3.40;99.90;;;;;;5045898;28;20216;-72
2022/12/07 06:30:37;;;;;;;33.00;16.77;;;3.40;99.90;;;;;;5043473;28;20290;-73
2022/12/07 06:33:03;;;;;;;29.47;15.77;;;3.40;99.90;;;;;;5044825;28;20195;-72
2022/12/07 06:35:29;;;;;;;32.73;16.80;;;3.40;99.90;;;;;;5045431;28;20302;-72
2022/12/07 06:37:54;;;;;;;31.23;16.47;;;3.50;99.90;;;;;;5044242;28;20766;-72
2022/12/07 06:40:20;;;;;;;34.93;17.23;;;3.50;99.90;;;;;;5049914;28;20207;-72
2022/12/07 06:42:45;;;;;;;34.27;16.60;;;3.50;99.90;;;;;;5043568;28;20212;-71
2022/12/07 06:45:11;;;;;;;35.83;18.40;;;3.60;99.90;;;;;;5045929;28;20203;-73
2022/12/07 06:47:36;;;;;;;32.57;17.33;;;3.60;99.90;;;;;;5050622;28;20204;-72
2022/12/07 06:50:02;;;;;;;34.80;17.63;;;3.60;99.90;;;;;;5046862;28;20643;-73
2022/12/07 06:52:28;;;;;;;36.27;18.20;;;3.60;99.90;;;;;;5043533;28;20210;-71
2022/12/07 06:54:54;;;;;;;40.10;19.03;;;3.60;99.90;;;;;;5046707;28;20207;-71
2022/12/07 06:57:20;;;;;;;36.27;17.77;;;3.60;99.90;;;;;;5045321;28;20674;-70
2022/12/07 06:59:45;;;;;;;37.57;17.47;;;3.60;99.90;;;;;;5047772;28;20164;-72
2022/12/07 07:02:11;;;;;;;35.33;18.00;;;3.70;99.90;;;;;;5047680;28;20217;-72
2022/12/07 07:04:36;;;;;;;39.60;18.93;;;3.70;99.90;;;;;;5044131;28;20220;-70
2022/12/07 07:07:02;;;;;;;39.13;19.20;;;3.70;99.90;;;;;;5042979;28;20211;-71
2022/12/07 07:09:28;;;;;;;37.20;19.57;;;3.70;99.90;;;;;;5042453;28;20223;-74
2022/12/07 07:11:53;;;;;;;40.67;19.50;;;3.70;99.90;;;;;;5039035;28;20297;-73
2022/12/07 07:14:19;;;;;;;36.47;19.03;;;3.80;99.90;;;;;;5045068;28;20206;-72
2022/12/07 07:16:45;;;;;;;37.87;19.43;;;3.80;99.90;;;;;;5043204;28;20624;-73
2022/12/07 07:19:10;;;;;;;34.60;18.17;;;3.80;99.90;;;;;;5042578;28;20257;-73
2022/12/07 07:21:36;;;;;;;35.43;20.07;;;3.80;99.90;;;;;;5048024;28;20265;-70
2022/12/07 07:24:02;;;;;;;34.27;17.67;;;3.80;99.90;;;;;;5046907;28;20184;-74
2022/12/07 07:26:28;;;;;;;36.90;18.00;;;3.80;99.90;;;;;;5044381;28;20206;-73
2022/12/07 07:28:53;;;;;;;33.37;18.07;;;3.80;99.90;;;;;;5045726;28;20197;-73
2022/12/07 07:31:19;;;;;;;34.53;17.33;;;3.90;99.90;;;;;;5043637;28;20203;-73
2022/12/07 07:33:46;;;;;;;32.00;16.20;;;3.80;99.90;;;;;;5042604;28;20320;-73
2022/12/07 07:36:12;;;;;;;26.20;14.90;;;3.80;99.90;;;;;;5045870;28;20185;-73
2022/12/07 07:38:37;;;;;;;28.10;15.03;;;3.80;99.90;;;;;;5042824;28;20196;-73
2022/12/07 07:41:03;;;;;;;24.63;14.27;;;3.80;99.90;;;;;;5040594;28;20885;-70
2022/12/07 07:43:29;;;;;;;25.90;14.57;;;3.80;99.90;;;;;;5046735;28;20726;-72
2022/12/07 07:45:54;;;;;;;27.30;13.83;;;3.80;99.90;;;;;;5039685;28;20221;-73
2022/12/07 07:48:22;;;;;;;24.70;13.13;;;3.80;99.90;;;;;;5048305;28;20233;-73
2022/12/07 07:50:48;;;;;;;22.57;13.17;;;3.80;99.90;;;;;;5043089;28;20160;-70
2022/12/07 07:53:13;;;;;;;23.80;12.87;;;3.90;99.90;;;;;;5041054;28;20265;-70
2022/12/07 07:55:39;;;;;;;23.83;12.70;;;3.90;99.90;;;;;;5052235;28;20207;-71
2022/12/07 07:58:05;;;;;;;20.33;11.00;;;3.90;99.90;;;;;;5044797;28;20221;-72
2022/12/07 08:00:30;;;;;;;20.80;10.67;;;3.90;99.90;;;;;;5045482;28;20620;-71
2022/12/07 08:02:56;;;;;;;18.10;10.10;;;3.90;99.90;;;;;;5049383;28;20257;-71
2022/12/07 08:05:22;;;;;;;17.40;9.17;;;3.90;99.90;;;;;;5047696;28;20203;-72
2022/12/07 08:07:47;;;;;;;18.07;9.37;;;4.00;99.90;;;;;;5045526;28;20253;-73
2022/12/07 08:10:13;;;;;;;16.97;8.77;;;4.00;99.90;;;;;;5050094;28;20206;-71
2022/12/07 08:13:10;;;;;;;16.13;8.80;;;4.00;99.90;;;;;;5045038;28;20227;-69
2022/12/07 08:15:29;;;;;;;15.13;8.80;;;4.00;99.90;;;;;;5051524;28;20591;-72
2022/12/07 08:17:55;;;;;;;15.50;8.37;;;4.00;99.90;;;;;;5048617;28;20209;-74
2022/12/07 08:20:21;;;;;;;15.70;7.57;;;4.00;99.90;;;;;;5045462;28;20296;-74
2022/12/07 08:22:46;;;;;;;16.07;8.17;;;4.00;99.90;;;;;;5049921;28;20281;-70
2022/12/07 08:25:12;;;;;;;14.90;7.13;;;4.00;99.90;;;;;;5047591;28;20297;-71
2022/12/07 08:27:37;;;;;;;12.43;7.00;;;4.10;99.90;;;;;;5042210;28;20649;-72
2022/12/07 08:30:04;;;;;;;14.50;6.87;;;4.10;99.90;;;;;;5048256;28;20249;-72
2022/12/07 08:32:29;;;;;;;8.43;5.40;;;4.10;99.90;;;;;;5046492;28;20204;-72
2022/12/07 08:34:55;;;;;;;7.87;5.20;;;4.10;99.90;;;;;;5045110;28;20588;-71
2022/12/07 08:37:21;;;;;;;8.47;5.17;;;4.10;99.90;;;;;;5049131;28;20582;-71
2022/12/07 08:39:46;;;;;;;10.30;4.97;;;4.10;99.90;;;;;;5046248;28;20211;-71
2022/12/07 08:42:12;;;;;;;6.40;3.87;;;4.00;99.90;;;;;;5049095;28;20193;-73
2022/12/07 08:44:37;;;;;;;6.20;3.97;;;4.10;99.90;;;;;;5048282;28;20172;-71
2022/12/07 08:47:06;;;;;;;6.03;3.40;;;4.10;99.90;;;;;;5043808;28;20305;-72
2022/12/07 08:49:39;;;;;;;4.23;3.07;;;4.10;99.90;;;;;;5050021;28;20257;-71
2022/12/07 08:52:05;;;;;;;6.60;3.40;;;4.10;99.90;;;;;;5043160;28;20215;-72
2022/12/07 08:54:34;;;;;;;3.37;2.63;;;4.20;99.90;;;;;;5043956;28;20237;-72
2022/12/07 08:56:59;;;;;;;3.97;3.03;;;4.10;99.90;;;;;;5048538;28;20196;-72
2022/12/07 08:59:26;;;;;;;4.50;2.87;;;4.10;99.90;;;;;;5045694;28;20697;-72
2022/12/07 09:01:52;;;;;;;2.67;2.20;;;4.10;99.90;;;;;;5044024;28;20597;-75
2022/12/07 09:04:18;;;;;;;4.10;2.70;;;4.10;99.90;;;;;;5046134;28;20264;-72
2022/12/07 09:06:43;;;;;;;2.67;2.43;;;4.20;99.90;;;;;;5042799;28;20219;-73
2022/12/07 09:09:11;;;;;;;3.73;2.67;;;4.20;99.90;;;;;;5049146;28;20606;-73
2022/12/07 09:11:36;;;;;;;2.90;2.30;;;4.20;99.90;;;;;;5044159;28;20186;-72
2022/12/07 09:14:02;;;;;;;3.93;2.87;;;4.20;99.90;;;;;;5046268;28;20207;-72
2022/12/07 09:16:28;;;;;;;3.10;2.60;;;4.20;99.90;;;;;;5050858;28;20213;-71
2022/12/07 09:18:53;;;;;;;3.47;2.43;;;4.10;99.90;;;;;;5043453;28;20304;-71
2022/12/07 09:21:19;;;;;;;4.57;2.33;;;4.00;99.90;;;;;;5046579;28;20261;-72
2022/12/07 09:23:45;;;;;;;4.87;2.47;;;4.00;99.90;;;;;;5049333;28;20228;-72
2022/12/07 09:26:10;;;;;;;3.20;2.30;;;4.00;99.90;;;;;;5047753;28;20205;-72
2022/12/07 09:28:36;;;;;;;3.40;2.47;;;4.00;99.90;;;;;;5044259;28;20654;-71
2022/12/07 09:31:03;;;;;;;3.60;2.23;;;4.10;99.90;;;;;;5043658;28;20590;-72
2022/12/07 09:33:29;;;;;;;5.33;2.80;;;4.10;99.90;;;;;;5044966;28;20226;-71
2022/12/07 09:35:54;;;;;;;4.77;2.87;;;4.10;99.90;;;;;;5046154;28;20658;-71
2022/12/07 09:38:20;;;;;;;5.77;2.80;;;4.00;99.90;;;;;;5047685;28;20297;-71
2022/12/07 09:40:46;;;;;;;7.50;2.90;;;4.10;99.90;;;;;;5041474;28;20267;-72
2022/12/07 09:43:21;;;;;;;8.57;2.77;;;4.00;99.90;;;;;;5044697;28;20245;-71
2022/12/07 09:45:50;;;;;;;5.30;2.53;;;3.90;99.90;;;;;;5043192;28;20208;-71
2022/12/07 09:48:25;;;;;;;3.97;1.73;;;4.00;99.90;;;;;;5046053;28;20645;-71
2022/12/07 09:50:53;;;;;;;4.23;3.67;;;4.00;99.90;;;;;;5045376;28;20539;-72
2022/12/07 09:53:33;;;;;;;2.17;1.97;;;4.00;99.90;;;;;;5046407;28;20213;-73
2022/12/07 09:55:59;;;;;;;3.47;2.50;;;3.90;99.90;;;;;;5044147;28;20197;-71
2022/12/07 09:58:28;;;;;;;5.63;2.80;;;3.90;99.90;;;;;;5048320;28;20660;-72
2022/12/07 10:00:58;;;;;;;4.93;2.60;;;3.90;99.90;;;;;;5039689;28;20708;-71
2022/12/07 10:03:26;;;;;;;4.07;2.60;;;3.90;99.90;;;;;;5050072;28;20193;-72
2022/12/07 10:05:52;;;;;;;3.83;2.27;;;3.90;99.90;;;;;;5045127;28;20174;-73
2022/12/07 10:08:18;;;;;;;4.27;2.50;;;3.90;99.90;;;;;;5042911;28;20284;-71
2022/12/07 10:10:50;;;;;;;5.57;3.50;;;3.90;99.90;;;;;;5044784;28;20298;-72
2022/12/07 10:13:21;;;;;;;4.40;2.23;;;3.90;99.90;;;;;;5045275;28;20708;-72
2022/12/07 10:15:57;;;;;;;3.33;2.70;;;3.90;99.90;;;;;;5042300;28;20248;-71
2022/12/07 10:18:38;;;;;;;4.43;2.43;;;3.90;99.90;;;;;;5045522;28;20224;-72
2022/12/07 10:21:20;;;;;;;3.33;2.60;;;3.90;99.90;;;;;;5055755;22;20238;-72
2022/12/07 10:24:10;;;;;;;3.97;2.90;;;3.80;99.90;;;;;;5024135;28;20211;-72
2022/12/07 10:26:39;;;;;;;4.20;2.90;;;3.90;99.90;;;;;;5025672;28;20247;-72
2022/12/07 10:29:14;;;;;;;4.03;2.47;;;3.90;99.90;;;;;;5022021;28;20223;-72
2022/12/07 10:31:40;;;;;;;4.60;3.17;;;3.90;99.90;;;;;;5025675;28;20215;-72
2022/12/07 10:34:24;;;;;;;3.73;2.77;;;3.90;99.90;;;;;;5022974;28;20217;-72
2022/12/07 10:36:50;;;;;;;7.00;2.87;;;3.90;99.90;;;;;;5025098;28;20254;-72
2022/12/07 10:39:25;;;;;;;8.20;3.87;;;3.90;99.90;;;;;;5099528;27;20981;-72
2022/12/07 10:42:01;;;;;;;4.07;3.07;;;3.90;99.90;;;;;;5067832;28;20199;-72
2022/12/07 10:44:32;;;;;;;6.63;3.53;;;3.90;99.90;;;;;;5065257;28;20657;-71
2022/12/07 10:47:24;;;;;;;7.53;3.37;;;4.00;99.90;;;;;;5065395;28;20259;-72
2022/12/07 10:50:14;;;;;;;4.47;3.10;;;4.00;99.90;;;;;;5062494;28;20206;-72
2022/12/07 10:53:03;;;;;;;4.77;3.60;;;4.00;99.90;;;;;;5063879;28;20205;-72
2022/12/07 10:56:03;;;;;;;4.37;3.10;;;4.00;99.90;;;;;;5063847;28;20310;-72
2022/12/07 10:59:10;;;;;;;4.03;3.27;;;4.10;99.90;;;;;;5065309;28;20633;-72
2022/12/07 11:01:46;;;;;;;4.10;3.20;;;4.10;99.90;;;;;;5053982;28;20704;-72
2022/12/07 11:04:26;;;;;;;6.37;3.93;;;4.10;99.90;;;;;;5053010;28;20219;-72
2022/12/07 11:07:02;;;;;;;5.73;4.10;;;4.20;99.90;;;;;;5065677;28;20209;-72
2022/12/07 11:09:43;;;;;;;7.87;3.93;;;4.20;99.90;;;;;;5062049;28;21191;-72
2022/12/07 11:12:34;;;;;;;6.03;3.60;;;4.20;99.90;;;;;;5066763;28;20344;-72
2022/12/07 11:15:21;;;;;;;9.23;4.13;;;4.10;99.90;;;;;;5065197;28;20186;-72
2022/12/07 11:18:11;;;;;;;6.90;3.13;;;4.20;99.90;;;;;;5041015;28;20225;-73
2022/12/07 11:20:44;;;;;;;4.47;3.30;;;4.20;99.90;;;;;;5062742;28;20296;-72
2022/12/07 11:23:19;;;;;;;4.83;3.67;;;4.10;99.90;;;;;;5064768;28;20683;-72
2022/12/07 11:25:56;;;;;;;8.50;3.63;;;4.20;99.90;;;;;;5063405;28;20616;-72
2022/12/07 11:28:56;;;;;;;6.20;3.63;;;4.30;99.90;;;;;;5065663;28;20202;-73
2022/12/07 11:31:36;;;;;;;5.33;3.27;;;4.30;99.90;;;;;;5062516;28;20212;-73
2022/12/07 11:34:37;;;;;;;6.03;4.17;;;4.30;99.90;;;;;;5064740;28;20274;-73
2022/12/07 11:37:09;;;;;;;4.60;3.30;;;4.30;99.90;;;;;;5060503;28;20216;-73
2022/12/07 11:39:52;;;;;;;5.63;3.27;;;4.30;99.90;;;;;;5065370;28;20218;-73
2022/12/07 11:42:45;;;;;;;8.53;3.73;;;4.40;99.90;;;;;;5065863;28;20735;-73
2022/12/07 11:45:30;;;;;;;6.97;3.67;;;4.30;99.90;;;;;;5064102;28;20174;-73
2022/12/07 11:48:14;;;;;;;7.93;3.90;;;4.40;99.90;;;;;;5064168;28;20196;-73
2022/12/07 11:50:43;;;;;;;5.03;3.50;;;4.40;99.90;;;;;;5052758;28;20720;-72
2022/12/07 11:53:08;;;;;;;6.23;3.57;;;4.40;99.90;;;;;;5031897;28;20308;-72
2022/12/07 11:55:51;;;;;;;5.07;3.30;;;4.40;99.90;;;;;;5039212;28;20298;-72
2022/12/07 11:58:42;;;;;;;5.37;3.53;;;4.40;99.90;;;;;;5042644;28;20222;-72
2022/12/07 12:01:16;;;;;;;4.33;2.97;;;4.50;99.90;;;;;;5050449;28;20310;-73
2022/12/07 12:03:47;;;;;;;5.33;2.97;;;4.40;99.90;;;;;;5051045;28;20242;-72
2022/12/07 12:06:14;;;;;;;5.77;3.17;;;4.50;99.90;;;;;;5051806;28;20244;-72
2022/12/07 12:08:52;;;;;;;6.97;3.30;;;4.50;99.90;;;;;;5052719;28;20214;-72
2022/12/07 12:11:42;;;;;;;4.87;2.40;;;4.60;99.90;;;;;;5047911;28;20689;-72
2022/12/07 12:14:37;;;;;;;4.53;3.00;;;4.50;99.90;;;;;;5051080;28;20207;-72
2022/12/07 12:17:22;;;;;;;6.00;3.50;;;4.50;99.90;;;;;;5048955;28;20210;-73
2022/12/07 12:20:02;;;;;;;7.17;2.47;;;4.60;99.90;;;;;;5048760;28;20206;-72
2022/12/07 12:22:41;;;;;;;5.47;2.70;;;4.60;99.90;;;;;;5036268;28;20212;-72
2022/12/07 12:25:21;;;;;;;5.90;2.53;;;4.60;99.90;;;;;;5039806;28;20203;-73
2022/12/07 12:27:49;;;;;;;4.93;2.33;;;4.60;99.90;;;;;;5049747;28;20208;-72
2022/12/07 12:30:37;;;;;;;3.63;2.60;;;4.60;99.90;;;;;;5051037;28;20818;-72
2022/12/07 12:33:17;;;;;;;8.60;3.00;;;4.60;99.90;;;;;;5051309;28;20183;-73
2022/12/07 12:35:43;;;;;;;6.10;2.90;;;4.50;99.90;;;;;;5050152;28;20218;-73
2022/12/07 12:38:30;;;;;;;7.23;2.90;;;4.60;99.90;;;;;;5051606;28;20280;-72
2022/12/07 12:40:57;;;;;;;6.37;2.27;;;4.70;99.90;;;;;;5048230;28;20296;-72
2022/12/07 12:43:49;;;;;;;5.57;2.57;;;4.60;99.90;;;;;;5051841;28;20203;-72
2022/12/07 12:46:29;;;;;;;6.53;2.10;;;4.60;99.90;;;;;;5051234;28;20701;-72
2022/12/07 12:49:20;;;;;;;6.43;2.30;;;4.60;99.90;;;;;;5049714;28;20742;-72
2022/12/07 12:51:47;;;;;;;8.00;2.33;;;4.60;99.90;;;;;;5050283;28;20214;-72
2022/12/07 12:54:32;;;;;;;5.97;2.53;;;4.60;99.90;;;;;;5051560;28;20187;-72
2022/12/07 12:57:04;;;;;;;6.47;2.57;;;4.60;99.90;;;;;;5049431;28;20187;-72
2022/12/07 12:59:47;;;;;;;10.80;2.67;;;4.60;99.90;;;;;;5050844;28;20203;-72
2022/12/07 13:02:36;;;;;;;7.40;2.70;;;4.60;99.90;;;;;;5039182;28;20319;-72
2022/12/07 13:05:27;;;;;;;6.70;2.63;;;4.60;99.90;;;;;;5044660;28;20581;-71
2022/12/07 13:08:13;;;;;;;3.93;1.93;;;4.70;99.90;;;;;;5049719;28;20698;-72
2022/12/07 13:10:41;;;;;;;9.67;5.57;;;4.70;99.90;;;;;;5047245;28;20301;-73